createdAt,value
2022-09-03T00:00:56.794Z,1.30
2022-09-03T00:01:56.827Z,1.60
2022-09-03T00:02:56.827Z,1.30
2022-09-03T00:03:56.770Z,1.30
2022-09-03T00:04:56.729Z,1.50
2022-09-03T00:05:56.730Z,1.20
2022-09-03T00:06:56.684Z,1.60
2022-09-03T00:07:56.702Z,1.50
2022-09-03T00:08:56.644Z,1.40
2022-09-03T00:09:56.672Z,1.40
2022-09-03T00:10:56.632Z,1.50
2022-09-03T00:11:56.609Z,1.50
2022-09-03T00:12:56.621Z,1.60
2022-09-03T00:13:56.585Z,1.40
2022-09-03T00:14:56.579Z,1.40
2022-09-03T00:15:56.560Z,1.40
2022-09-03T00:16:56.522Z,1.50
2022-09-03T00:17:56.527Z,1.40
2022-09-03T00:18:56.480Z,1.50
2022-09-03T00:19:56.487Z,1.40
2022-09-03T00:20:56.443Z,1.30
2022-09-03T00:21:56.427Z,1.40
2022-09-03T00:22:56.442Z,1.40
2022-09-03T00:23:56.388Z,1.40
2022-09-03T00:24:56.482Z,1.50
2022-09-03T00:25:56.434Z,1.40
2022-09-03T00:26:56.371Z,1.70
2022-09-03T00:27:56.373Z,1.40
2022-09-03T00:28:56.332Z,1.40
2022-09-03T00:29:56.321Z,1.50
2022-09-03T00:30:56.299Z,1.40
2022-09-03T00:31:56.261Z,1.50
2022-09-03T00:32:56.272Z,1.50
2022-09-03T00:33:56.236Z,1.50
2022-09-03T00:34:56.218Z,1.40
2022-09-03T00:35:56.225Z,1.50
2022-09-03T00:36:56.252Z,1.50
2022-09-03T00:37:56.198Z,1.40
2022-09-03T00:38:56.154Z,1.50
2022-09-03T00:39:56.172Z,1.40
2022-09-03T00:40:56.120Z,1.20
2022-09-03T00:41:56.100Z,1.50
2022-09-03T00:42:56.132Z,1.30
2022-09-03T00:43:56.076Z,1.40
2022-09-03T00:44:56.045Z,1.20
2022-09-03T00:45:56.119Z,1.40
2022-09-03T00:46:56.046Z,1.50
2022-09-03T00:48:29.969Z,1.50
2022-09-03T00:48:55.962Z,1.40
2022-09-03T00:49:55.961Z,1.40
2022-09-03T00:50:55.937Z,1.40
2022-09-03T00:51:55.915Z,1.50
2022-09-03T00:52:55.991Z,1.50
2022-09-03T00:53:55.885Z,1.50
2022-09-03T00:54:55.877Z,1.40
2022-09-03T00:55:55.897Z,1.40
2022-09-03T00:56:55.847Z,1.30
2022-09-03T00:57:55.861Z,1.60
2022-09-03T00:58:55.842Z,1.50
2022-09-03T00:59:55.821Z,1.50
2022-09-03T01:00:55.797Z,1.40
2022-09-03T01:01:55.889Z,1.50
2022-09-03T01:02:55.862Z,1.50
2022-09-03T01:03:55.731Z,1.40
2022-09-03T01:04:55.712Z,1.40
2022-09-03T01:06:01.013Z,1.20
2022-09-03T01:06:57.709Z,1.40
2022-09-03T01:07:55.686Z,1.40
2022-09-03T01:08:55.639Z,1.40
2022-09-03T01:09:55.738Z,1.50
2022-09-03T01:10:55.618Z,1.40
2022-09-03T01:11:55.596Z,1.30
2022-09-03T01:12:55.923Z,1.50
2022-09-03T01:13:55.562Z,1.30
2022-09-03T01:14:55.559Z,1.40
2022-09-03T01:15:55.604Z,1.40
2022-09-03T01:16:55.522Z,1.40
2022-09-03T01:17:55.530Z,1.40
2022-09-03T01:18:55.490Z,1.50
2022-09-03T01:19:55.459Z,1.30
2022-09-03T01:20:55.549Z,1.50
2022-09-03T01:21:55.456Z,1.50
2022-09-03T01:22:55.459Z,1.50
2022-09-03T01:23:55.414Z,1.50
2022-09-03T01:24:55.382Z,1.40
2022-09-03T01:25:55.449Z,1.40
2022-09-03T01:26:55.349Z,1.50
2022-09-03T01:27:55.360Z,1.40
2022-09-03T01:28:55.310Z,1.50
2022-09-03T01:29:55.310Z,1.40
2022-09-03T01:30:55.315Z,1.40
2022-09-03T01:31:55.303Z,1.50
2022-09-03T01:32:55.281Z,1.40
2022-09-03T01:33:55.249Z,1.50
2022-09-03T01:34:55.239Z,1.60
2022-09-03T01:35:55.195Z,1.30
2022-09-03T01:36:55.198Z,1.40
2022-09-03T01:37:55.207Z,1.50
2022-09-03T01:38:55.163Z,1.30
2022-09-03T01:39:55.194Z,1.30
2022-09-03T01:40:55.125Z,1.60
2022-09-03T01:41:55.091Z,1.40
2022-09-03T01:42:55.233Z,1.50
2022-09-03T01:43:55.068Z,1.40
2022-09-03T01:44:55.062Z,1.60
2022-09-03T01:45:55.191Z,1.40
2022-09-03T01:46:55.013Z,1.50
2022-09-03T01:47:55.080Z,1.50
2022-09-03T01:48:54.984Z,1.40
2022-09-03T01:49:54.978Z,1.50
2022-09-03T01:50:54.946Z,1.40
2022-09-03T01:51:54.939Z,1.50
2022-09-03T01:52:54.958Z,1.40
2022-09-03T01:53:54.972Z,1.50
2022-09-03T01:54:54.882Z,1.40
2022-09-03T01:55:55.001Z,1.50
2022-09-03T01:56:54.855Z,1.60
2022-09-03T01:57:54.868Z,1.40
2022-09-03T01:58:54.826Z,1.40
2022-09-03T01:59:54.796Z,1.50
2022-09-03T02:00:54.794Z,1.40
2022-09-03T02:01:54.776Z,1.40
2022-09-03T02:02:54.944Z,1.50
2022-09-03T02:03:54.739Z,1.50
2022-09-03T02:04:54.805Z,1.30
2022-09-03T02:05:54.708Z,1.60
2022-09-03T02:06:54.689Z,1.60
2022-09-03T02:07:54.697Z,1.40
2022-09-03T02:08:54.648Z,1.30
2022-09-03T02:09:54.637Z,1.50
2022-09-03T02:10:54.620Z,1.40
2022-09-03T02:11:54.599Z,1.40
2022-09-03T02:12:54.610Z,1.50
2022-09-03T02:13:54.565Z,1.50
2022-09-03T02:14:54.549Z,1.50
2022-09-03T02:15:54.636Z,1.50
2022-09-03T02:16:54.518Z,1.60
2022-09-03T02:17:54.535Z,1.60
2022-09-03T02:18:54.489Z,1.30
2022-09-03T02:19:54.515Z,1.40
2022-09-03T02:20:54.445Z,1.60
2022-09-03T02:21:54.443Z,1.60
2022-09-03T02:22:54.452Z,1.40
2022-09-03T02:23:54.405Z,1.40
2022-09-03T02:24:54.373Z,1.40
2022-09-03T02:25:54.425Z,1.50
2022-09-03T02:26:54.409Z,1.50
2022-09-03T02:27:54.374Z,1.60
2022-09-03T02:28:54.308Z,1.60
2022-09-03T02:29:54.301Z,1.60
2022-09-03T02:30:54.344Z,1.30
2022-09-03T02:31:54.269Z,1.50
2022-09-03T02:32:54.277Z,1.40
2022-09-03T02:33:54.230Z,1.50
2022-09-03T02:34:54.222Z,1.50
2022-09-03T02:35:54.422Z,1.40
2022-09-03T02:36:54.185Z,1.50
2022-09-03T02:37:54.309Z,1.60
2022-09-03T02:38:54.151Z,1.30
2022-09-03T02:39:54.176Z,1.50
2022-09-03T02:40:54.123Z,1.60
2022-09-03T02:41:54.096Z,1.50
2022-09-03T02:42:54.124Z,1.50
2022-09-03T02:43:54.082Z,1.50
2022-09-03T02:44:54.055Z,1.40
2022-09-03T02:45:54.124Z,1.50
2022-09-03T02:46:54.016Z,1.50
2022-09-03T02:47:54.037Z,1.40
2022-09-03T02:48:54.076Z,1.50
2022-09-03T02:49:53.977Z,1.40
2022-09-03T02:50:53.968Z,1.50
2022-09-03T02:51:53.939Z,1.50
2022-09-03T02:52:53.956Z,2.10
2022-09-03T02:53:53.899Z,1.70
2022-09-03T02:54:53.895Z,1.70
2022-09-03T02:55:53.910Z,1.50
2022-09-03T02:56:53.865Z,1.60
2022-09-03T02:57:53.877Z,1.50
2022-09-03T02:58:53.831Z,1.80
2022-09-03T02:59:53.819Z,1.90
2022-09-03T03:00:53.831Z,1.60
2022-09-03T03:01:53.767Z,1.70
2022-09-03T03:02:53.839Z,1.40
2022-09-03T03:03:53.754Z,1.40
2022-09-03T03:04:53.727Z,1.50
2022-09-03T03:05:53.730Z,1.70
2022-09-03T03:06:53.728Z,1.50
2022-09-03T03:07:53.704Z,1.50
2022-09-03T03:08:53.657Z,1.40
2022-09-03T03:09:53.646Z,1.50
2022-09-03T03:10:53.728Z,1.50
2022-09-03T03:11:53.615Z,1.50
2022-09-03T03:12:53.659Z,1.30
2022-09-03T03:13:53.580Z,1.50
2022-09-03T03:14:53.555Z,1.50
2022-09-03T03:15:53.565Z,1.50
2022-09-03T03:16:54.668Z,1.60
2022-09-03T03:17:53.557Z,1.30
2022-09-03T03:18:53.507Z,1.50
2022-09-03T03:19:53.479Z,1.30
2022-09-03T03:20:53.472Z,1.50
2022-09-03T03:21:53.480Z,1.60
2022-09-03T03:22:53.459Z,1.40
2022-09-03T03:23:53.416Z,1.40
2022-09-03T03:24:53.411Z,1.40
2022-09-03T03:25:53.393Z,1.30
2022-09-03T03:26:53.369Z,1.40
2022-09-03T03:27:53.380Z,1.50
2022-09-03T03:28:53.323Z,1.40
2022-09-03T03:29:53.324Z,1.50
2022-09-03T03:30:53.328Z,1.70
2022-09-03T03:31:53.285Z,1.60
2022-09-03T03:32:53.379Z,1.60
2022-09-03T03:33:53.263Z,1.50
2022-09-03T03:34:53.257Z,1.40
2022-09-03T03:35:53.245Z,1.40
2022-09-03T03:36:53.215Z,1.50
2022-09-03T03:37:53.224Z,1.30
2022-09-03T03:38:53.180Z,1.60
2022-09-03T03:39:53.197Z,1.50
2022-09-03T03:40:53.143Z,1.50
2022-09-03T03:41:53.108Z,1.50
2022-09-03T03:42:53.212Z,1.60
2022-09-03T03:43:53.103Z,1.40
2022-09-03T03:44:53.072Z,1.40
2022-09-03T03:45:53.144Z,1.30
2022-09-03T03:46:53.033Z,1.70
2022-09-03T03:47:53.041Z,1.60
2022-09-03T03:48:53.000Z,1.40
2022-09-03T03:49:52.975Z,1.40
2022-09-03T03:50:53.059Z,1.50
2022-09-03T03:51:52.954Z,1.50
2022-09-03T03:52:52.974Z,1.50
2022-09-03T03:53:52.945Z,1.70
2022-09-03T03:54:52.881Z,1.50
2022-09-03T03:55:52.895Z,1.50
2022-09-03T03:56:55.826Z,1.80
2022-09-03T03:57:52.882Z,1.50
2022-09-03T03:58:52.827Z,1.40
2022-09-03T03:59:52.813Z,1.50
2022-09-03T04:00:52.832Z,1.40
2022-09-03T04:01:52.777Z,1.40
2022-09-03T04:02:52.901Z,1.50
2022-09-03T04:03:52.742Z,1.40
2022-09-03T04:04:52.746Z,1.50
2022-09-03T04:05:52.762Z,1.40
2022-09-03T04:06:52.710Z,1.50
2022-09-03T04:07:52.722Z,1.60
2022-09-03T04:08:52.672Z,1.40
2022-09-03T04:09:52.651Z,1.40
2022-09-03T04:10:52.675Z,1.40
2022-09-03T04:11:52.608Z,1.50
2022-09-03T04:12:52.624Z,1.60
2022-09-03T04:13:52.573Z,1.60
2022-09-03T04:14:52.571Z,1.50
2022-09-03T04:15:52.565Z,1.40
2022-09-03T04:16:52.646Z,1.50
2022-09-03T04:17:52.554Z,1.40
2022-09-03T04:18:52.498Z,1.40
2022-09-03T04:19:52.482Z,1.60
2022-09-03T04:20:52.457Z,1.40
2022-09-03T04:21:52.454Z,1.40
2022-09-03T04:22:52.454Z,1.50
2022-09-03T04:23:52.414Z,1.70
2022-09-03T04:24:52.398Z,1.40
2022-09-03T04:25:52.413Z,1.40
2022-09-03T04:26:52.355Z,1.60
2022-09-03T04:27:52.358Z,1.50
2022-09-03T04:28:52.364Z,1.50
2022-09-03T04:29:52.325Z,1.50
2022-09-03T04:30:52.383Z,1.50
2022-09-03T04:31:52.280Z,1.50
2022-09-03T04:32:52.579Z,1.50
2022-09-03T04:33:52.279Z,1.70
2022-09-03T04:34:52.240Z,1.50
2022-09-03T04:35:52.247Z,1.60
2022-09-03T04:36:52.986Z,1.40
2022-09-03T04:37:53.184Z,1.70
2022-09-03T04:38:52.223Z,1.50
2022-09-03T04:39:52.246Z,1.60
2022-09-03T04:40:52.129Z,1.60
2022-09-03T04:41:52.109Z,1.50
2022-09-03T04:42:52.098Z,1.40
2022-09-03T04:43:52.117Z,1.60
2022-09-03T04:44:52.112Z,1.60
2022-09-03T04:45:52.105Z,1.60
2022-09-03T04:46:52.023Z,1.50
2022-09-03T04:47:52.016Z,1.60
2022-09-03T04:48:52.031Z,1.60
2022-09-03T04:49:51.983Z,1.50
2022-09-03T04:50:51.959Z,1.60
2022-09-03T04:51:51.950Z,1.60
2022-09-03T04:52:52.017Z,1.60
2022-09-03T04:53:51.950Z,1.50
2022-09-03T04:54:51.983Z,1.50
2022-09-03T04:55:51.952Z,1.60
2022-09-03T04:56:51.977Z,1.60
2022-09-03T04:57:52.021Z,1.50
2022-09-03T04:58:51.852Z,1.50
2022-09-03T04:59:51.798Z,1.50
2022-09-03T05:00:51.931Z,1.60
2022-09-03T05:01:51.792Z,1.60
2022-09-03T05:02:51.766Z,1.70
2022-09-03T05:03:51.799Z,1.50
2022-09-03T05:04:51.773Z,1.50
2022-09-03T05:05:52.538Z,1.60
2022-09-03T05:06:52.686Z,1.50
2022-09-03T05:07:51.686Z,1.70
2022-09-03T05:08:51.707Z,1.50
2022-09-03T05:09:51.652Z,1.60
2022-09-03T05:10:51.620Z,1.50
2022-09-03T05:11:51.617Z,1.50
2022-09-03T05:12:51.591Z,1.70
2022-09-03T05:13:51.607Z,1.50
2022-09-03T05:14:51.563Z,1.50
2022-09-03T05:15:51.564Z,1.50
2022-09-03T05:16:52.778Z,1.50
2022-09-03T05:17:51.509Z,1.60
2022-09-03T05:18:51.526Z,1.50
2022-09-03T05:19:51.491Z,1.70
2022-09-03T05:20:51.454Z,1.50
2022-09-03T05:21:51.435Z,1.50
2022-09-03T05:22:51.434Z,1.50
2022-09-03T05:23:51.432Z,1.70
2022-09-03T05:24:51.398Z,1.50
2022-09-03T05:25:51.381Z,1.40
2022-09-03T05:26:51.367Z,1.40
2022-09-03T05:27:51.340Z,1.50
2022-09-03T05:28:51.347Z,1.60
2022-09-03T05:29:51.319Z,1.60
2022-09-03T05:30:51.294Z,1.60
2022-09-03T05:31:51.325Z,1.60
2022-09-03T05:32:51.260Z,1.70
2022-09-03T05:33:51.301Z,1.50
2022-09-03T05:34:51.229Z,1.60
2022-09-03T05:35:51.204Z,1.30
2022-09-03T05:36:51.180Z,1.40
2022-09-03T05:37:51.161Z,1.40
2022-09-03T05:38:51.189Z,1.50
2022-09-03T05:39:51.172Z,1.40
2022-09-03T05:40:51.156Z,1.40
2022-09-03T05:41:51.110Z,1.50
2022-09-03T05:42:51.073Z,1.60
2022-09-03T05:43:51.089Z,1.40
2022-09-03T05:44:51.047Z,1.40
2022-09-03T05:45:51.130Z,1.50
2022-09-03T05:46:51.008Z,1.40
2022-09-03T05:47:51.003Z,1.50
2022-09-03T05:48:51.011Z,1.60
2022-09-03T05:49:50.961Z,1.20
2022-09-03T05:50:50.949Z,1.50
2022-09-03T05:51:50.955Z,1.50
2022-09-03T05:52:50.932Z,1.60
2022-09-03T05:53:50.922Z,1.50
2022-09-03T05:54:50.874Z,1.40
2022-09-03T05:55:50.865Z,1.40
2022-09-03T05:56:50.863Z,1.60
2022-09-03T05:57:50.837Z,1.40
2022-09-03T05:58:50.904Z,1.40
2022-09-03T05:59:50.931Z,1.40
2022-09-03T06:00:50.786Z,1.30
2022-09-03T06:01:53.758Z,1.50
2022-09-03T06:02:51.841Z,1.40
2022-09-03T06:03:51.109Z,1.50
2022-09-03T06:04:50.789Z,1.50
2022-09-03T06:05:50.697Z,1.40
2022-09-03T06:06:50.688Z,1.50
2022-09-03T06:07:50.660Z,1.50
2022-09-03T06:08:50.691Z,1.70
2022-09-03T06:09:50.644Z,1.50
2022-09-03T06:10:50.609Z,1.50
2022-09-03T06:11:50.607Z,1.40
2022-09-03T06:12:50.572Z,1.70
2022-09-03T06:13:50.622Z,1.40
2022-09-03T06:14:50.544Z,1.50
2022-09-03T06:15:50.547Z,1.40
2022-09-03T06:16:50.646Z,1.40
2022-09-03T06:17:50.499Z,1.50
2022-09-03T06:18:50.515Z,1.40
2022-09-03T06:19:50.527Z,1.40
2022-09-03T06:20:50.461Z,1.50
2022-09-03T06:21:50.442Z,1.50
2022-09-03T06:22:50.431Z,1.30
2022-09-03T06:23:50.460Z,1.50
2022-09-03T06:24:50.392Z,1.60
2022-09-03T06:25:50.389Z,1.40
2022-09-03T06:26:50.365Z,1.30
2022-09-03T06:27:50.332Z,1.50
2022-09-03T06:28:50.365Z,1.50
2022-09-03T06:29:50.322Z,1.50
2022-09-03T06:30:50.294Z,1.50
2022-09-03T06:31:50.360Z,1.60
2022-09-03T06:32:50.255Z,1.50
2022-09-03T06:33:50.281Z,1.40
2022-09-03T06:34:50.233Z,1.50
2022-09-03T06:35:50.325Z,1.50
2022-09-03T06:36:50.221Z,1.50
2022-09-03T06:37:50.184Z,1.40
2022-09-03T06:38:50.203Z,1.50
2022-09-03T06:39:50.238Z,1.50
2022-09-03T06:40:50.186Z,1.50
2022-09-03T06:41:50.118Z,1.50
2022-09-03T06:42:50.139Z,1.30
2022-09-03T06:43:50.129Z,1.50
2022-09-03T06:44:50.160Z,1.40
2022-09-03T06:45:50.144Z,1.50
2022-09-03T06:46:50.044Z,1.40
2022-09-03T06:47:50.051Z,1.50
2022-09-03T06:49:23.590Z,1.30
2022-09-03T06:49:50.009Z,1.40
2022-09-03T06:50:49.998Z,1.60
2022-09-03T06:51:49.988Z,1.30
2022-09-03T06:52:49.955Z,1.60
2022-09-03T06:53:49.987Z,1.50
2022-09-03T06:54:49.941Z,1.60
2022-09-03T06:55:49.929Z,1.50
2022-09-03T06:56:49.928Z,1.60
2022-09-03T06:57:52.812Z,1.50
2022-09-03T06:58:49.922Z,1.60
2022-09-03T06:59:49.882Z,1.50
2022-09-03T07:00:49.918Z,1.50
2022-09-03T07:01:49.903Z,1.70
2022-09-03T07:02:50.021Z,1.60
2022-09-03T07:03:49.827Z,1.60
2022-09-03T07:04:49.796Z,1.40
2022-09-03T07:05:49.781Z,1.60
2022-09-03T07:06:49.773Z,1.50
2022-09-03T07:07:49.741Z,1.60
2022-09-03T07:08:49.740Z,1.60
2022-09-03T07:09:49.696Z,1.60
2022-09-03T07:10:49.683Z,1.40
2022-09-03T07:11:49.670Z,1.60
2022-09-03T07:12:49.655Z,1.60
2022-09-03T07:13:49.674Z,1.60
2022-09-03T07:14:51.126Z,1.40
2022-09-03T07:15:49.658Z,1.70
2022-09-03T07:16:49.607Z,1.70
2022-09-03T07:17:49.566Z,1.60
2022-09-03T07:18:49.596Z,1.50
2022-09-03T07:19:49.553Z,1.40
2022-09-03T07:20:49.513Z,1.60
2022-09-03T07:21:50.706Z,1.50
2022-09-03T07:22:50.504Z,1.60
2022-09-03T07:23:49.500Z,1.70
2022-09-03T07:24:49.452Z,1.50
2022-09-03T07:25:49.437Z,1.60
2022-09-03T07:26:49.455Z,1.50
2022-09-03T07:27:49.403Z,1.70
2022-09-03T07:28:49.414Z,1.60
2022-09-03T07:29:49.373Z,1.50
2022-09-03T07:30:49.376Z,1.40
2022-09-03T07:31:49.392Z,1.40
2022-09-03T07:32:49.337Z,1.50
2022-09-03T07:33:49.338Z,1.40
2022-09-03T07:34:49.296Z,1.50
2022-09-03T07:35:49.273Z,1.60
2022-09-03T07:36:49.265Z,1.50
2022-09-03T07:37:49.243Z,1.70
2022-09-03T07:38:49.252Z,1.60
2022-09-03T07:39:49.284Z,1.70
2022-09-03T07:40:49.192Z,1.50
2022-09-03T07:41:49.185Z,1.60
2022-09-03T07:42:52.109Z,1.50
2022-09-03T07:43:51.174Z,1.60
2022-09-03T07:44:49.137Z,1.60
2022-09-03T07:45:49.169Z,1.80
2022-09-03T07:46:49.204Z,1.80
2022-09-03T07:47:49.082Z,1.70
2022-09-03T07:48:49.101Z,1.70
2022-09-03T07:49:49.041Z,1.80
2022-09-03T07:50:49.031Z,1.60
2022-09-03T07:51:49.006Z,1.80
2022-09-03T07:52:49.015Z,1.60
2022-09-03T07:53:49.021Z,1.70
2022-09-03T07:54:49.027Z,1.80
2022-09-03T07:55:49.957Z,1.80
2022-09-03T07:56:48.942Z,1.70
2022-09-03T07:57:48.940Z,1.70
2022-09-03T07:58:48.949Z,1.80
2022-09-03T07:59:48.908Z,2.00
2022-09-03T08:00:48.935Z,1.70
2022-09-03T08:01:48.895Z,1.70
2022-09-03T08:02:48.854Z,1.80
2022-09-03T08:03:48.930Z,1.90
2022-09-03T08:04:48.835Z,1.90
2022-09-03T08:05:48.799Z,1.70
2022-09-03T08:06:48.784Z,1.70
2022-09-03T08:07:48.779Z,1.70
2022-09-03T08:08:48.798Z,1.70
2022-09-03T08:09:48.758Z,1.70
2022-09-03T08:10:48.737Z,1.90
2022-09-03T08:11:48.736Z,2.00
2022-09-03T08:12:48.702Z,1.90
2022-09-03T08:13:48.721Z,2.20
2022-09-03T08:14:48.668Z,1.90
2022-09-03T08:15:48.697Z,1.90
2022-09-03T08:16:48.643Z,1.80
2022-09-03T08:17:48.631Z,1.90
2022-09-03T08:18:48.643Z,1.70
2022-09-03T08:19:48.631Z,1.90
2022-09-03T08:20:48.587Z,1.80
2022-09-03T08:21:49.572Z,1.80
2022-09-03T08:22:48.555Z,1.80
2022-09-03T08:23:48.563Z,2.00
2022-09-03T08:24:48.527Z,2.00
2022-09-03T08:25:48.517Z,2.00
2022-09-03T08:26:52.171Z,1.90
2022-09-03T08:27:49.481Z,2.20
2022-09-03T08:28:48.511Z,1.90
2022-09-03T08:29:48.457Z,1.90
2022-09-03T08:30:48.447Z,3.00
2022-09-03T08:31:48.496Z,2.30
2022-09-03T08:32:48.413Z,2.20
2022-09-03T08:33:48.428Z,2.00
2022-09-03T08:34:48.394Z,1.90
2022-09-03T08:35:48.364Z,2.00
2022-09-03T08:36:48.352Z,2.00
2022-09-03T08:37:48.330Z,2.00
2022-09-03T08:38:48.364Z,1.90
2022-09-03T08:39:48.350Z,2.10
2022-09-03T08:40:48.304Z,1.90
2022-09-03T08:41:48.281Z,1.90
2022-09-03T08:42:48.262Z,1.90
2022-09-03T08:43:48.318Z,2.10
2022-09-03T08:44:48.260Z,2.10
2022-09-03T08:45:48.226Z,2.10
2022-09-03T08:46:48.303Z,2.00
2022-09-03T08:47:48.216Z,1.90
2022-09-03T08:48:48.225Z,1.90
2022-09-03T08:49:48.179Z,1.90
2022-09-03T08:50:48.154Z,2.00
2022-09-03T08:51:48.143Z,1.90
2022-09-03T08:52:48.218Z,1.90
2022-09-03T08:53:48.153Z,2.00
2022-09-03T08:54:48.093Z,2.10
2022-09-03T08:55:48.077Z,2.00
2022-09-03T08:56:48.074Z,2.00
2022-09-03T08:57:48.056Z,2.00
2022-09-03T08:58:48.071Z,2.10
2022-09-03T08:59:48.020Z,2.00
2022-09-03T09:00:48.028Z,2.30
2022-09-03T09:01:48.113Z,2.10
2022-09-03T09:02:48.027Z,2.00
2022-09-03T09:03:48.044Z,2.10
2022-09-03T09:04:47.973Z,1.70
2022-09-03T09:05:47.939Z,1.90
2022-09-03T09:06:47.934Z,1.90
2022-09-03T09:07:47.912Z,1.90
2022-09-03T09:08:47.950Z,2.10
2022-09-03T09:09:47.899Z,2.10
2022-09-03T09:10:47.872Z,2.00
2022-09-03T09:11:47.884Z,2.00
2022-09-03T09:12:47.869Z,2.10
2022-09-03T09:13:47.851Z,1.90
2022-09-03T09:14:47.812Z,2.10
2022-09-03T09:15:47.872Z,1.90
2022-09-03T09:16:47.794Z,1.90
2022-09-03T09:17:47.778Z,2.10
2022-09-03T09:18:47.783Z,1.90
2022-09-03T09:19:48.774Z,2.10
2022-09-03T09:20:47.726Z,1.80
2022-09-03T09:21:47.713Z,1.80
2022-09-03T09:22:47.710Z,1.70
2022-09-03T09:23:47.714Z,1.80
2022-09-03T09:24:47.672Z,1.90
2022-09-03T09:25:47.658Z,1.90
2022-09-03T09:26:47.640Z,1.90
2022-09-03T09:27:47.624Z,2.00
2022-09-03T09:28:47.651Z,2.00
2022-09-03T09:29:47.602Z,1.70
2022-09-03T09:30:47.659Z,2.00
2022-09-03T09:31:47.577Z,1.90
2022-09-03T09:32:47.567Z,2.00
2022-09-03T09:33:47.576Z,1.80
2022-09-03T09:34:51.827Z,1.80
2022-09-03T09:35:48.517Z,2.00
2022-09-03T09:36:47.540Z,1.80
2022-09-03T09:37:47.491Z,2.00
2022-09-03T09:38:47.506Z,1.90
2022-09-03T09:39:47.519Z,1.80
2022-09-03T09:40:47.454Z,1.90
2022-09-03T09:41:47.438Z,1.80
2022-09-03T09:42:48.425Z,1.90
2022-09-03T09:43:47.440Z,1.80
2022-09-03T09:44:47.404Z,1.90
2022-09-03T09:45:47.452Z,1.80
2022-09-03T09:46:50.246Z,1.60
2022-09-03T09:47:48.350Z,1.90
2022-09-03T09:48:47.364Z,1.70
2022-09-03T09:49:47.317Z,1.90
2022-09-03T09:50:47.304Z,1.90
2022-09-03T09:51:47.289Z,1.70
2022-09-03T09:52:48.220Z,1.70
2022-09-03T09:53:47.290Z,1.70
2022-09-03T09:54:47.249Z,1.70
2022-09-03T09:55:47.235Z,1.70
2022-09-03T09:56:47.218Z,1.90
2022-09-03T09:57:47.190Z,2.10
2022-09-03T09:58:47.216Z,1.70
2022-09-03T09:59:47.178Z,1.80
2022-09-03T10:00:47.147Z,1.70
2022-09-03T10:01:47.259Z,1.70
2022-09-03T10:02:47.205Z,1.80
2022-09-03T10:03:47.167Z,1.70
2022-09-03T10:04:47.091Z,1.70
2022-09-03T10:05:47.073Z,1.70
2022-09-03T10:06:47.082Z,1.70
2022-09-03T10:07:47.058Z,1.70
2022-09-03T10:08:47.058Z,1.60
2022-09-03T10:09:47.014Z,1.60
2022-09-03T10:10:47.002Z,1.30
2022-09-03T10:11:46.987Z,1.80
2022-09-03T10:12:46.965Z,1.60
2022-09-03T10:13:46.989Z,1.80
2022-09-03T10:14:46.929Z,1.60
2022-09-03T10:15:46.950Z,1.70
2022-09-03T10:16:46.899Z,1.90
2022-09-03T10:17:46.890Z,1.40
2022-09-03T10:18:46.904Z,1.50
2022-09-03T10:19:46.840Z,1.70
2022-09-03T10:20:46.821Z,1.60
2022-09-03T10:21:46.819Z,1.60
2022-09-03T10:22:56.246Z,1.60
2022-09-03T10:23:47.828Z,1.60
2022-09-03T10:24:46.767Z,1.50
2022-09-03T10:25:46.760Z,1.60
2022-09-03T10:26:46.745Z,1.70
2022-09-03T10:27:47.725Z,1.50
2022-09-03T10:28:46.716Z,1.40
2022-09-03T10:29:46.726Z,1.60
2022-09-03T10:30:46.710Z,1.50
2022-09-03T10:31:46.657Z,1.60
2022-09-03T10:32:48.558Z,1.60
2022-09-03T10:33:47.626Z,1.50
2022-09-03T10:34:46.653Z,1.70
2022-09-03T10:35:46.613Z,1.60
2022-09-03T10:36:46.578Z,1.60
2022-09-03T10:37:46.574Z,1.60
2022-09-03T10:38:46.582Z,1.50
2022-09-03T10:39:51.544Z,1.70
2022-09-03T10:40:48.532Z,1.70
2022-09-03T10:41:46.501Z,1.70
2022-09-03T10:42:46.509Z,2.20
2022-09-03T10:43:46.468Z,1.90
2022-09-03T10:44:46.484Z,2.00
2022-09-03T10:45:46.444Z,2.00
2022-09-03T10:46:46.490Z,1.50
2022-09-03T10:47:46.504Z,1.80
2022-09-03T10:48:46.404Z,1.70
2022-09-03T10:49:46.409Z,1.70
2022-09-03T10:50:46.363Z,1.50
2022-09-03T10:51:49.554Z,1.30
2022-09-03T10:52:47.354Z,1.60
2022-09-03T10:53:46.324Z,1.50
2022-09-03T10:54:46.336Z,1.40
2022-09-03T10:55:46.292Z,1.70
2022-09-03T10:56:46.269Z,1.60
2022-09-03T10:57:46.255Z,1.50
2022-09-03T10:58:46.231Z,1.40
2022-09-03T10:59:46.267Z,1.70
2022-09-03T11:00:46.229Z,1.40
2022-09-03T11:01:46.260Z,1.40
2022-09-03T11:02:46.254Z,1.30
2022-09-03T11:03:46.167Z,1.40
2022-09-03T11:04:46.192Z,1.40
2022-09-03T11:05:46.153Z,1.30
2022-09-03T11:06:46.109Z,1.40
2022-09-03T11:07:46.115Z,1.30
2022-09-03T11:08:46.073Z,1.20
2022-09-03T11:09:46.089Z,1.60
2022-09-03T11:10:46.054Z,1.40
2022-09-03T11:11:46.041Z,1.50
2022-09-03T11:12:46.028Z,1.50
2022-09-03T11:13:46.006Z,1.70
2022-09-03T11:14:46.013Z,2.80
2022-09-03T11:15:46.027Z,5.20
2022-09-03T11:16:46.952Z,1.70
2022-09-03T11:17:45.931Z,4.90
2022-09-03T11:18:45.934Z,3.70
2022-09-03T11:19:45.948Z,3.50
2022-09-03T11:20:45.896Z,4.40
2022-09-03T11:21:45.867Z,4.60
2022-09-03T11:22:45.883Z,4.90
2022-09-03T11:23:45.834Z,2.40
2022-09-03T11:24:45.874Z,2.20
2022-09-03T11:25:45.800Z,1.70
2022-09-03T11:26:45.898Z,1.40
2022-09-03T11:27:45.781Z,1.40
2022-09-03T11:28:45.809Z,1.50
2022-09-03T11:29:45.760Z,1.30
2022-09-03T11:30:45.767Z,1.40
2022-09-03T11:31:45.720Z,1.40
2022-09-03T11:32:45.699Z,1.30
2022-09-03T11:33:45.742Z,1.40
2022-09-03T11:34:45.680Z,1.50
2022-09-03T11:35:45.662Z,1.50
2022-09-03T11:36:48.033Z,1.40
2022-09-03T11:37:46.643Z,1.50
2022-09-03T11:38:45.662Z,1.50
2022-09-03T11:39:45.638Z,1.50
2022-09-03T11:40:45.582Z,1.40
2022-09-03T11:41:45.553Z,1.60
2022-09-03T11:42:45.541Z,1.40
2022-09-03T11:43:45.536Z,1.40
2022-09-03T11:44:51.733Z,1.50
2022-09-03T11:45:46.533Z,1.40
2022-09-03T11:46:45.492Z,1.50
2022-09-03T11:47:45.472Z,1.50
2022-09-03T11:48:45.445Z,1.60
2022-09-03T11:49:45.458Z,1.40
2022-09-03T11:50:45.432Z,1.60
2022-09-03T11:51:45.413Z,1.30
2022-09-03T11:52:45.391Z,3.40
2022-09-03T11:53:45.362Z,3.70
2022-09-03T11:54:45.376Z,2.50
2022-09-03T11:55:45.339Z,1.50
2022-09-03T11:56:45.326Z,1.30
2022-09-03T11:57:45.307Z,1.50
2022-09-03T11:58:45.295Z,1.60
2022-09-03T11:59:45.306Z,1.60
2022-09-03T12:00:45.270Z,1.80
2022-09-03T12:01:45.236Z,1.50
2022-09-03T12:02:45.303Z,1.70
2022-09-03T12:03:45.225Z,2.30
2022-09-03T12:04:45.325Z,1.80
2022-09-03T12:05:45.177Z,1.70
2022-09-03T12:06:45.157Z,2.40
2022-09-03T12:07:45.153Z,1.80
2022-09-03T12:08:45.126Z,1.50
2022-09-03T12:09:45.138Z,1.50
2022-09-03T12:10:45.089Z,1.50
2022-09-03T12:11:45.076Z,1.40
2022-09-03T12:12:45.082Z,1.40
2022-09-03T12:13:45.056Z,1.40
2022-09-03T12:14:45.065Z,1.50
2022-09-03T12:15:45.044Z,1.50
2022-09-03T12:16:45.008Z,1.30
2022-09-03T12:17:44.980Z,1.60
2022-09-03T12:18:44.971Z,2.20
2022-09-03T12:19:44.975Z,1.50
2022-09-03T12:20:44.946Z,1.50
2022-09-03T12:21:44.941Z,1.50
2022-09-03T12:22:44.959Z,1.70
2022-09-03T12:23:44.909Z,1.80
2022-09-03T12:24:44.916Z,1.50
2022-09-03T12:25:44.865Z,1.40
2022-09-03T12:26:44.833Z,1.70
2022-09-03T12:27:44.869Z,2.30
2022-09-03T12:28:44.898Z,3.00
2022-09-03T12:29:44.792Z,2.00
2022-09-03T12:30:44.906Z,1.50
2022-09-03T12:31:44.756Z,1.70
2022-09-03T12:32:44.737Z,1.90
2022-09-03T12:33:44.777Z,1.60
2022-09-03T12:34:44.722Z,1.60
2022-09-03T12:36:00.548Z,1.60
2022-09-03T12:36:46.676Z,1.60
2022-09-03T12:39:10.508Z,2.50
2022-09-03T12:41:46.678Z,3.60
2022-09-03T12:42:44.594Z,2.10
2022-09-03T12:43:49.846Z,4.40
2022-09-03T12:44:46.570Z,2.10
2022-09-03T12:46:46.670Z,2.80
2022-09-03T12:47:44.582Z,1.90
2022-09-03T12:48:44.771Z,2.00
2022-09-03T12:49:44.498Z,1.50
2022-09-03T12:50:49.431Z,1.60
2022-09-03T12:51:49.838Z,1.50
2022-09-03T12:52:46.436Z,1.60
2022-09-03T12:53:44.448Z,1.40
2022-09-03T12:54:45.838Z,1.50
2022-09-03T12:55:45.388Z,3.60
2022-09-03T12:56:44.367Z,1.70
2022-09-03T12:57:45.640Z,1.70
2022-09-03T12:58:44.397Z,1.70
2022-09-03T12:59:44.338Z,1.70
2022-09-03T13:00:44.291Z,1.60
2022-09-03T13:01:44.297Z,1.60
2022-09-03T13:02:44.254Z,1.50
2022-09-03T13:03:44.276Z,1.50
2022-09-03T13:04:44.229Z,1.60
2022-09-03T13:05:45.203Z,1.60
2022-09-03T13:06:44.184Z,1.50
2022-09-03T13:07:44.682Z,1.60
2022-09-03T13:08:44.192Z,1.50
2022-09-03T13:09:44.239Z,1.50
2022-09-03T13:10:44.125Z,1.70
2022-09-03T13:11:44.115Z,1.60
2022-09-03T13:12:44.091Z,1.60
2022-09-03T13:13:44.100Z,1.50
2022-09-03T13:14:44.063Z,1.60
2022-09-03T13:15:44.040Z,1.70
2022-09-03T13:16:44.201Z,1.50
2022-09-03T13:17:44.029Z,1.60
2022-09-03T13:18:44.083Z,1.50
2022-09-03T13:19:43.982Z,1.50
2022-09-03T13:20:43.982Z,2.00
2022-09-03T13:21:43.946Z,1.60
2022-09-03T13:22:43.931Z,1.60